Terminal Aerodrome Forecast
Issued by NWS

Current Version | Previous Version | Text Only | Print | Product List | Glossary On
Versions: 1 2 3 4 5 6 7 8 9 10 11 12 13 14 15
000
FTUS44 KEPZ 170500
TAFLRU
TAF
KLRU 170527Z 1706/1806 02008KT P6SM VCSH SCT030 BKN080
     FM170700 08007KT 5SM -SHRA SCT015 BKN025 OVC050
      TEMPO 1707/1711 3SM SHRA BKN015
     FM171200 08007KT P6SM VCSH SCT010 BKN020 OVC040
     FM171900 09008KT P6SM VCSH SCT025 BKN050
     FM180400 02008KT 6SM -SHRA SCT015 BKN030=

USA.gov is the U.S. government's official web portal to all federal, state and local government web resources and services.